createdAt,value
2017-01-26T00:00:25.854Z,89.44
2017-01-26T00:01:25.843Z,89.53
2017-01-26T00:02:25.828Z,89.72
2017-01-26T00:03:25.817Z,89.82
2017-01-26T00:04:25.802Z,89.72
2017-01-26T00:05:25.790Z,89.82
2017-01-26T00:06:25.775Z,89.72
2017-01-26T00:07:25.763Z,90.01
2017-01-26T00:08:25.749Z,90.1
2017-01-26T00:09:25.740Z,89.91
2017-01-26T00:10:25.727Z,90.58
2017-01-26T00:11:25.710Z,90.67
2017-01-26T00:12:25.696Z,90.29
2017-01-26T00:13:25.684Z,90.58
2017-01-26T00:14:25.697Z,89.91
2017-01-26T00:15:25.660Z,90.1
2017-01-26T00:16:25.645Z,90.2
2017-01-26T00:17:25.631Z,90.01
2017-01-26T00:18:25.617Z,90.1
2017-01-26T00:19:25.604Z,89.82
2017-01-26T00:20:25.594Z,90.77
2017-01-26T00:21:25.576Z,90.39
2017-01-26T00:22:25.564Z,89.63
2017-01-26T00:23:25.554Z,89.63
2017-01-26T00:24:25.537Z,89.72
2017-01-26T00:25:25.912Z,89.72
2017-01-26T00:26:25.510Z,90.2
2017-01-26T00:27:25.500Z,90.77
2017-01-26T00:28:25.490Z,89.91
2017-01-26T00:29:25.473Z,90.29
2017-01-26T00:30:25.471Z,90.39
2017-01-26T00:31:25.443Z,90.01
2017-01-26T00:32:25.438Z,90.39
2017-01-26T00:33:25.414Z,89.91
2017-01-26T00:34:25.403Z,90.48
2017-01-26T00:35:25.391Z,90.39
2017-01-26T00:36:25.375Z,90.72
2017-01-26T00:37:25.362Z,90.53
2017-01-26T00:38:25.352Z,90.58
2017-01-26T00:39:25.335Z,90.29
2017-01-26T00:40:25.328Z,90.44
2017-01-26T00:41:25.307Z,90.63
2017-01-26T00:42:25.297Z,90.81
2017-01-26T00:43:25.283Z,90.81
2017-01-26T00:44:25.267Z,90.91
2017-01-26T00:45:25.254Z,90.81
2017-01-26T00:46:25.242Z,90.53
2017-01-26T00:47:25.225Z,91
2017-01-26T00:48:25.211Z,91.19
2017-01-26T00:49:25.199Z,91.1
2017-01-26T00:50:25.185Z,90.91
2017-01-26T00:51:25.170Z,91.05
2017-01-26T00:52:25.158Z,90.91
2017-01-26T00:53:25.144Z,90.81
2017-01-26T00:54:25.129Z,91.19
2017-01-26T00:55:25.124Z,91
2017-01-26T00:56:25.102Z,91.05
2017-01-26T00:57:25.097Z,91.24
2017-01-26T00:58:25.078Z,91.14
2017-01-26T00:59:25.062Z,91.33
2017-01-26T01:00:25.048Z,91.05
2017-01-26T01:01:25.033Z,91.05
2017-01-26T01:02:25.023Z,90.58
2017-01-26T01:03:25.008Z,91.24
2017-01-26T01:04:24.996Z,91.14
2017-01-26T01:05:24.979Z,90.48
2017-01-26T01:06:24.965Z,90.67
2017-01-26T01:07:24.972Z,90.67
2017-01-26T01:08:24.940Z,90.29
2017-01-26T01:09:24.925Z,90.63
2017-01-26T01:10:24.913Z,91.24
2017-01-26T01:11:24.898Z,91.05
2017-01-26T01:12:24.885Z,90.39
2017-01-26T01:13:24.873Z,90.39
2017-01-26T01:14:24.858Z,89.91
2017-01-26T01:15:24.847Z,89.91
2017-01-26T01:16:24.831Z,90.48
2017-01-26T01:17:24.817Z,90.1
2017-01-26T01:18:24.807Z,90.15
2017-01-26T01:19:24.800Z,89.87
2017-01-26T01:20:24.777Z,90.44
2017-01-26T01:21:24.764Z,89.91
2017-01-26T01:22:24.751Z,90.48
2017-01-26T01:23:24.735Z,90.15
2017-01-26T01:24:24.721Z,90.1
2017-01-26T01:25:24.710Z,90.1
2017-01-26T01:26:24.698Z,90.29
2017-01-26T01:27:24.683Z,89.49
2017-01-26T01:28:24.667Z,90.06
2017-01-26T01:29:24.655Z,90.25
2017-01-26T01:30:24.644Z,90.44
2017-01-26T01:31:24.628Z,90.72
2017-01-26T01:32:24.614Z,90.72
2017-01-26T01:33:24.607Z,90.1
2017-01-26T01:34:24.586Z,90.44
2017-01-26T01:35:24.572Z,90.63
2017-01-26T01:36:24.560Z,90.58
2017-01-26T01:37:24.547Z,90.48
2017-01-26T01:38:24.531Z,90.29
2017-01-26T01:39:24.519Z,90.1
2017-01-26T01:40:24.504Z,90.1
2017-01-26T01:41:24.490Z,90.06
2017-01-26T01:42:24.477Z,90.72
2017-01-26T01:43:24.466Z,89.87
2017-01-26T01:44:24.451Z,90.34
2017-01-26T01:45:24.435Z,90.48
2017-01-26T01:46:24.423Z,89.39
2017-01-26T01:47:24.414Z,90.15
2017-01-26T01:48:24.395Z,90.53
2017-01-26T01:49:24.381Z,90.25
2017-01-26T01:50:24.373Z,89.58
2017-01-26T01:51:24.360Z,90.72
2017-01-26T01:52:24.339Z,90.63
2017-01-26T01:53:24.330Z,90.63
2017-01-26T01:54:24.313Z,90.06
2017-01-26T01:55:24.302Z,90.44
2017-01-26T01:56:24.286Z,89.96
2017-01-26T01:57:24.278Z,90.15
2017-01-26T01:58:24.261Z,89.68
2017-01-26T01:59:24.245Z,89.77
2017-01-26T02:00:24.231Z,90.06
2017-01-26T02:01:24.217Z,89.96
2017-01-26T02:02:24.204Z,89.96
2017-01-26T02:03:24.190Z,90.25
2017-01-26T02:04:24.175Z,89.77
2017-01-26T02:05:24.163Z,89.68
2017-01-26T02:06:24.151Z,90.72
2017-01-26T02:07:24.136Z,90.34
2017-01-26T02:08:24.121Z,89.87
2017-01-26T02:09:24.110Z,90.67
2017-01-26T02:10:24.095Z,90.72
2017-01-26T02:11:24.084Z,89.96
2017-01-26T02:12:24.068Z,89.77
2017-01-26T02:13:24.054Z,89.87
2017-01-26T02:14:24.041Z,90.06
2017-01-26T02:15:24.027Z,89.96
2017-01-26T02:16:24.013Z,90.25
2017-01-26T02:17:23.999Z,90.53
2017-01-26T02:18:23.986Z,90.72
2017-01-26T02:19:23.972Z,90.72
2017-01-26T02:20:23.958Z,90.72
2017-01-26T02:21:23.945Z,90.53
2017-01-26T02:22:23.932Z,90.25
2017-01-26T02:23:23.917Z,90.15
2017-01-26T02:24:23.903Z,90.44
2017-01-26T02:25:23.890Z,90.34
2017-01-26T02:26:23.890Z,90.34
2017-01-26T02:27:23.880Z,90.44
2017-01-26T02:28:23.855Z,90.72
2017-01-26T02:29:23.833Z,90.72
2017-01-26T02:30:23.822Z,90.81
2017-01-26T02:31:23.806Z,90.25
2017-01-26T02:32:23.794Z,90.63
2017-01-26T02:33:23.779Z,90.53
2017-01-26T02:34:23.765Z,90.15
2017-01-26T02:35:23.753Z,90.25
2017-01-26T02:36:23.736Z,90.53
2017-01-26T02:37:23.724Z,90.15
2017-01-26T02:38:23.709Z,90.34
2017-01-26T02:39:23.698Z,90.44
2017-01-26T02:40:23.681Z,90.44
2017-01-26T02:41:23.672Z,90.44
2017-01-26T02:42:23.663Z,89.58
2017-01-26T02:43:23.641Z,89.87
2017-01-26T02:44:23.627Z,89.87
2017-01-26T02:45:23.616Z,90.06
2017-01-26T02:46:23.600Z,89.96
2017-01-26T02:47:23.587Z,90.06
2017-01-26T02:48:23.572Z,89.96
2017-01-26T02:49:23.558Z,89.96
2017-01-26T02:50:23.547Z,90.06
2017-01-26T02:51:23.531Z,90.06
2017-01-26T02:52:23.520Z,89.49
2017-01-26T02:53:23.506Z,89.58
2017-01-26T02:54:23.490Z,89.58
2017-01-26T02:55:23.478Z,89.39
2017-01-26T02:56:23.465Z,89.87
2017-01-26T02:57:23.459Z,89.77
2017-01-26T02:58:23.437Z,89.39
2017-01-26T02:59:23.427Z,89.58
2017-01-26T03:00:23.416Z,89.49
2017-01-26T03:01:23.394Z,89.77
2017-01-26T03:02:23.381Z,89.87
2017-01-26T03:03:23.365Z,89.87
2017-01-26T03:04:23.355Z,89.77
2017-01-26T03:05:23.340Z,90.06
2017-01-26T03:06:23.327Z,89.39
2017-01-26T03:07:23.311Z,89.01
2017-01-26T03:08:23.304Z,89.06
2017-01-26T03:09:23.283Z,88.96
2017-01-26T03:10:23.270Z,88.68
2017-01-26T03:11:23.259Z,88.54
2017-01-26T03:12:23.243Z,88.82
2017-01-26T03:13:23.234Z,88.26
2017-01-26T03:14:23.244Z,88.64
2017-01-26T03:15:23.205Z,88.45
2017-01-26T03:16:23.193Z,88.64
2017-01-26T03:17:23.175Z,88.73
2017-01-26T03:18:23.161Z,88.54
2017-01-26T03:19:23.147Z,88.45
2017-01-26T03:20:23.133Z,88.73
2017-01-26T03:21:23.121Z,88.64
2017-01-26T03:22:23.106Z,89.11
2017-01-26T03:23:23.096Z,89.11
2017-01-26T03:24:23.090Z,89.11
2017-01-26T03:25:23.065Z,88.54
2017-01-26T03:26:23.055Z,88.73
2017-01-26T03:27:23.040Z,88.45
2017-01-26T03:28:23.026Z,88.73
2017-01-26T03:29:23.012Z,88.64
2017-01-26T03:30:22.999Z,88.64
2017-01-26T03:31:22.984Z,88.64
2017-01-26T03:32:22.970Z,88.54
2017-01-26T03:33:22.984Z,88.26
2017-01-26T03:34:22.943Z,88.54
2017-01-26T03:35:22.928Z,88.82
2017-01-26T03:36:22.919Z,88.17
2017-01-26T03:37:22.906Z,88.64
2017-01-26T03:38:22.890Z,88.64
2017-01-26T03:39:22.875Z,88.64
2017-01-26T03:40:22.867Z,88.54
2017-01-26T03:41:22.847Z,88.64
2017-01-26T03:42:22.834Z,88.64
2017-01-26T03:43:22.819Z,88.45
2017-01-26T03:44:22.805Z,88.64
2017-01-26T03:45:22.793Z,88.82
2017-01-26T03:46:22.778Z,88.07
2017-01-26T03:47:22.765Z,88.54
2017-01-26T03:48:22.764Z,88.73
2017-01-26T03:49:22.737Z,89.11
2017-01-26T03:50:22.725Z,89.3
2017-01-26T03:51:22.709Z,88.73
2017-01-26T03:52:22.699Z,88.45
2017-01-26T03:53:22.680Z,88.64
2017-01-26T03:54:22.668Z,88.64
2017-01-26T03:55:22.654Z,88.35
2017-01-26T03:56:22.641Z,88.54
2017-01-26T03:57:22.627Z,88.07
2017-01-26T03:58:22.617Z,87.98
2017-01-26T03:59:22.598Z,88.17
2017-01-26T04:00:22.585Z,88.54
2017-01-26T04:01:22.570Z,88.26
2017-01-26T04:02:22.561Z,88.35
2017-01-26T04:03:22.544Z,88.17
2017-01-26T04:04:22.529Z,88.54
2017-01-26T04:05:22.516Z,88.17
2017-01-26T04:06:22.504Z,88.07
2017-01-26T04:07:22.487Z,88.35
2017-01-26T04:08:22.476Z,88.73
2017-01-26T04:09:22.461Z,88.64
2017-01-26T04:10:22.451Z,88.73
2017-01-26T04:11:22.435Z,88.64
2017-01-26T04:12:22.418Z,88.64
2017-01-26T04:13:22.408Z,88.92
2017-01-26T04:14:22.392Z,88.17
2017-01-26T04:15:22.377Z,88.73
2017-01-26T04:16:22.363Z,88.82
2017-01-26T04:17:22.350Z,88.17
2017-01-26T04:18:22.337Z,88.45
2017-01-26T04:19:22.325Z,88.64
2017-01-26T04:20:22.310Z,88.92
2017-01-26T04:21:22.295Z,88.64
2017-01-26T04:22:22.281Z,88.64
2017-01-26T04:23:22.267Z,88.73
2017-01-26T04:24:22.253Z,88.73
2017-01-26T04:25:22.242Z,88.73
2017-01-26T04:26:22.229Z,89.2
2017-01-26T04:27:22.212Z,89.01
2017-01-26T04:28:22.197Z,89.2
2017-01-26T04:29:22.185Z,89.2
2017-01-26T04:30:22.170Z,89.11
2017-01-26T04:31:22.156Z,89.01
2017-01-26T04:32:22.143Z,89.11
2017-01-26T04:33:22.128Z,88.92
2017-01-26T04:34:22.116Z,89.11
2017-01-26T04:35:22.128Z,88.92
2017-01-26T04:36:22.090Z,89.11
2017-01-26T04:37:22.073Z,89.11
2017-01-26T04:38:22.059Z,89.11
2017-01-26T04:39:22.045Z,89.3
2017-01-26T04:40:22.031Z,89.01
2017-01-26T04:41:22.018Z,89.01
2017-01-26T04:42:22.005Z,89.01
2017-01-26T04:43:21.989Z,89.01
2017-01-26T04:44:21.975Z,89.01
2017-01-26T04:45:21.961Z,89.96
2017-01-26T04:46:21.947Z,89.68
2017-01-26T04:47:21.934Z,89.49
2017-01-26T04:48:21.920Z,89.77
2017-01-26T04:49:21.906Z,89.77
2017-01-26T04:50:21.892Z,89.58
2017-01-26T04:51:21.880Z,89.68
2017-01-26T04:52:21.867Z,89.68
2017-01-26T04:53:21.851Z,89.68
2017-01-26T04:54:21.836Z,89.58
2017-01-26T04:55:21.823Z,89.96
2017-01-26T04:56:21.811Z,89.96
2017-01-26T04:57:21.793Z,90.15
2017-01-26T04:58:21.781Z,90.06
2017-01-26T04:59:21.767Z,90.06
2017-01-26T05:00:21.752Z,89.87
2017-01-26T05:01:21.740Z,90.72
2017-01-26T05:02:21.725Z,89.68
2017-01-26T05:03:21.712Z,90.53
2017-01-26T05:04:21.698Z,90.53
2017-01-26T05:05:21.686Z,90.15
2017-01-26T05:06:21.670Z,89.68
2017-01-26T05:07:21.655Z,90.15
2017-01-26T05:08:21.646Z,89.87
2017-01-26T05:09:21.627Z,90.44
2017-01-26T05:10:21.639Z,89.77
2017-01-26T05:11:21.599Z,90.25
2017-01-26T05:12:21.615Z,90.25
2017-01-26T05:13:21.571Z,90.53
2017-01-26T05:14:21.556Z,90.72
2017-01-26T05:15:21.543Z,89.87
2017-01-26T05:16:21.531Z,89.87
2017-01-26T05:17:21.544Z,90.06
2017-01-26T05:18:21.501Z,89.96
2017-01-26T05:19:21.525Z,89.96
2017-01-26T05:20:21.475Z,90.15
2017-01-26T05:21:21.460Z,89.68
2017-01-26T05:22:21.447Z,89.96
2017-01-26T05:23:21.436Z,90.06
2017-01-26T05:24:21.417Z,89.68
2017-01-26T05:25:21.405Z,89.39
2017-01-26T05:26:21.392Z,89.49
2017-01-26T05:27:21.378Z,90.15
2017-01-26T05:28:21.368Z,90.15
2017-01-26T05:29:21.349Z,89.68
2017-01-26T05:30:21.333Z,89.39
2017-01-26T05:31:21.561Z,89.87
2017-01-26T05:32:21.307Z,89.96
2017-01-26T05:33:21.680Z,90.06
2017-01-26T05:34:21.279Z,90.06
2017-01-26T05:35:21.267Z,89.58
2017-01-26T05:36:21.252Z,89.87
2017-01-26T05:37:21.237Z,89.96
2017-01-26T05:38:21.225Z,89.96
2017-01-26T05:39:21.209Z,90.06
2017-01-26T05:40:21.195Z,89.77
2017-01-26T05:41:21.182Z,90.15
2017-01-26T05:42:21.169Z,90.15
2017-01-26T05:43:21.153Z,90.25
2017-01-26T05:44:21.141Z,89.87
2017-01-26T05:45:21.126Z,90.25
2017-01-26T05:46:21.110Z,89.77
2017-01-26T05:47:21.097Z,90.15
2017-01-26T05:48:21.084Z,89.96
2017-01-26T05:49:21.071Z,90.25
2017-01-26T05:50:21.055Z,90.15
2017-01-26T05:51:21.041Z,90.34
2017-01-26T05:52:21.028Z,90.34
2017-01-26T05:53:21.013Z,90.44
2017-01-26T05:54:20.997Z,90.06
2017-01-26T05:55:20.986Z,90.44
2017-01-26T05:56:20.972Z,90.25
2017-01-26T05:57:20.957Z,89.96
2017-01-26T05:58:20.942Z,90.34
2017-01-26T05:59:20.929Z,90.53
2017-01-26T06:00:20.913Z,90.34
2017-01-26T06:01:20.918Z,90.72
2017-01-26T06:02:20.886Z,90.53
2017-01-26T06:03:20.871Z,90.72
2017-01-26T06:04:20.856Z,90.91
2017-01-26T06:05:20.844Z,90.91
2017-01-26T06:06:20.829Z,90.91
2017-01-26T06:07:20.823Z,90.44
2017-01-26T06:08:20.801Z,90.44
2017-01-26T06:09:20.787Z,90.44
2017-01-26T06:10:20.773Z,90.53
2017-01-26T06:11:20.760Z,90.15
2017-01-26T06:12:20.747Z,90.34
2017-01-26T06:13:20.730Z,90.53
2017-01-26T06:14:20.719Z,90.34
2017-01-26T06:15:20.703Z,90.06
2017-01-26T06:16:20.692Z,90.25
2017-01-26T06:17:20.678Z,89.96
2017-01-26T06:18:20.662Z,89.58
2017-01-26T06:19:20.649Z,90.44
2017-01-26T06:20:20.632Z,90.15
2017-01-26T06:21:20.619Z,89.77
2017-01-26T06:22:20.605Z,90.34
2017-01-26T06:23:20.593Z,89.49
2017-01-26T06:24:20.578Z,89.58
2017-01-26T06:25:20.568Z,90.72
2017-01-26T06:26:20.569Z,90.25
2017-01-26T06:27:20.557Z,90.63
2017-01-26T06:28:20.525Z,90.72
2017-01-26T06:29:20.509Z,89.77
2017-01-26T06:30:20.493Z,89.96
2017-01-26T06:31:20.481Z,89.87
2017-01-26T06:32:20.467Z,89.68
2017-01-26T06:33:20.452Z,89.3
2017-01-26T06:34:20.436Z,89.58
2017-01-26T06:35:20.426Z,90.06
2017-01-26T06:36:20.409Z,90.06
2017-01-26T06:37:20.424Z,90.15
2017-01-26T06:38:20.383Z,89.77
2017-01-26T06:39:20.368Z,89.87
2017-01-26T06:40:20.355Z,90.15
2017-01-26T06:41:20.340Z,89.87
2017-01-26T06:42:20.328Z,90.06
2017-01-26T06:43:20.313Z,90.15
2017-01-26T06:44:20.301Z,90.06
2017-01-26T06:45:20.286Z,90.06
2017-01-26T06:46:20.272Z,89.96
2017-01-26T06:47:20.257Z,89.87
2017-01-26T06:48:20.242Z,90.25
2017-01-26T06:49:20.230Z,90.63
2017-01-26T06:50:20.216Z,89.49
2017-01-26T06:51:20.200Z,89.96
2017-01-26T06:52:20.186Z,90.44
2017-01-26T06:53:20.176Z,90.06
2017-01-26T06:54:20.161Z,90.15
2017-01-26T06:55:20.538Z,90.34
2017-01-26T06:56:20.128Z,90.34
2017-01-26T06:57:20.118Z,90.44
2017-01-26T06:58:20.103Z,90.44
2017-01-26T06:59:20.091Z,90.44
2017-01-26T07:00:20.075Z,90.34
2017-01-26T07:01:20.062Z,90.25
2017-01-26T07:02:20.045Z,90.25
2017-01-26T07:03:20.032Z,90.72
2017-01-26T07:04:20.018Z,90.72
2017-01-26T07:05:20.004Z,90.63
2017-01-26T07:06:19.989Z,90.53
2017-01-26T07:07:19.974Z,90.25
2017-01-26T07:08:19.961Z,90.34
2017-01-26T07:09:19.947Z,90.15
2017-01-26T07:10:19.934Z,90.81
2017-01-26T07:11:19.918Z,89.87
2017-01-26T07:12:19.907Z,90.53
2017-01-26T07:13:19.889Z,90.34
2017-01-26T07:14:19.877Z,90.72
2017-01-26T07:15:19.864Z,90.15
2017-01-26T07:16:19.848Z,90.53
2017-01-26T07:17:19.839Z,89.68
2017-01-26T07:18:19.819Z,90.06
2017-01-26T07:19:19.807Z,90.06
2017-01-26T07:20:19.795Z,90.44
2017-01-26T07:21:19.777Z,89.96
2017-01-26T07:22:19.766Z,89.96
2017-01-26T07:23:19.754Z,89.87
2017-01-26T07:24:19.738Z,89.49
2017-01-26T07:25:19.722Z,89.87
2017-01-26T07:26:19.709Z,90.34
2017-01-26T07:27:19.694Z,89.58
2017-01-26T07:28:20.068Z,90.06
2017-01-26T07:29:19.666Z,90.15
2017-01-26T07:30:19.657Z,90.15
2017-01-26T07:31:19.639Z,90.15
2017-01-26T07:32:19.623Z,89.96
2017-01-26T07:33:19.996Z,90.06
2017-01-26T07:34:19.597Z,90.06
2017-01-26T07:35:19.584Z,90.06
2017-01-26T07:36:19.571Z,89.68
2017-01-26T07:37:19.555Z,89.68
2017-01-26T07:38:19.540Z,89.77
2017-01-26T07:39:19.529Z,89.49
2017-01-26T07:40:19.511Z,89.87
2017-01-26T07:41:19.884Z,90.25
2017-01-26T07:42:19.485Z,90.34
2017-01-26T07:43:19.471Z,89.87
2017-01-26T07:44:19.844Z,90.72
2017-01-26T07:45:19.447Z,89.87
2017-01-26T07:46:19.820Z,89.39
2017-01-26T07:47:19.418Z,89.68
2017-01-26T07:48:19.401Z,89.68
2017-01-26T07:49:19.389Z,89.77
2017-01-26T07:50:19.382Z,89.87
2017-01-26T07:51:19.362Z,89.87
2017-01-26T07:52:19.351Z,89.68
2017-01-26T07:53:19.333Z,89.58
2017-01-26T07:54:19.318Z,89.58
2017-01-26T07:55:19.308Z,89.49
2017-01-26T07:56:19.293Z,89.49
2017-01-26T07:57:19.283Z,89.49
2017-01-26T07:58:19.266Z,89.68
2017-01-26T07:59:19.252Z,89.87
2017-01-26T08:00:19.236Z,89.87
2017-01-26T08:01:19.225Z,89.68
2017-01-26T08:02:19.210Z,89.68
2017-01-26T08:03:19.197Z,89.58
2017-01-26T08:04:19.180Z,89.87
2017-01-26T08:05:19.172Z,90.25
2017-01-26T08:06:19.508Z,89.49
2017-01-26T08:07:19.141Z,89.77
2017-01-26T08:08:19.128Z,89.11
2017-01-26T08:09:19.113Z,89.3
2017-01-26T08:10:19.126Z,88.54
2017-01-26T08:11:19.086Z,88.35
2017-01-26T08:12:19.076Z,88.35
2017-01-26T08:13:19.061Z,88.64
2017-01-26T08:14:19.053Z,88.07
2017-01-26T08:15:19.034Z,88.54
2017-01-26T08:16:19.019Z,88.35
2017-01-26T08:17:19.007Z,88.17
2017-01-26T08:18:19.000Z,87.59
2017-01-26T08:19:18.980Z,87.98
2017-01-26T08:20:18.965Z,87.73
2017-01-26T08:21:18.954Z,87.26
2017-01-26T08:22:18.939Z,86.98
2017-01-26T08:23:18.928Z,86.6
2017-01-26T08:24:19.299Z,86.5
2017-01-26T08:25:18.898Z,86.31
2017-01-26T08:26:18.886Z,85.65
2017-01-26T08:27:18.872Z,86.03
2017-01-26T08:28:18.857Z,85.27
2017-01-26T08:29:18.845Z,85.46
2017-01-26T08:30:18.835Z,85.17
2017-01-26T08:31:18.818Z,85.27
2017-01-26T08:32:18.809Z,83.94
2017-01-26T08:33:18.793Z,84.04
2017-01-26T08:34:18.788Z,84.23
2017-01-26T08:35:18.766Z,84.04
2017-01-26T08:36:18.753Z,83.66
2017-01-26T08:37:18.742Z,83.66
2017-01-26T08:38:18.729Z,83.85
2017-01-26T08:39:18.714Z,83.85
2017-01-26T08:40:18.701Z,84.23
2017-01-26T08:41:18.694Z,84.42
2017-01-26T08:42:18.926Z,84.51
2017-01-26T08:43:18.664Z,84.51
2017-01-26T08:44:18.654Z,84.13
2017-01-26T08:45:18.640Z,83.28
2017-01-26T08:46:18.625Z,82.9
2017-01-26T08:47:18.612Z,82.52
2017-01-26T08:48:18.598Z,82.05
2017-01-26T08:49:18.584Z,82.24
2017-01-26T08:50:18.573Z,82.14
2017-01-26T08:51:18.561Z,82.62
2017-01-26T08:52:18.547Z,82.24
2017-01-26T08:53:18.534Z,82.24
2017-01-26T08:54:18.521Z,82.52
2017-01-26T08:55:18.510Z,82.43
2017-01-26T08:56:18.496Z,82.71
2017-01-26T08:57:18.486Z,82.71
2017-01-26T08:58:18.477Z,82.52
2017-01-26T08:59:18.457Z,82.62
2017-01-26T09:00:18.446Z,82.05
2017-01-26T09:01:18.433Z,81.99
2017-01-26T09:02:18.420Z,81.52
2017-01-26T09:03:18.407Z,81.33
2017-01-26T09:04:18.396Z,81.05
2017-01-26T09:05:18.383Z,80.86
2017-01-26T09:06:18.372Z,80.48
2017-01-26T09:07:18.360Z,80.19
2017-01-26T09:08:18.344Z,80.38
2017-01-26T09:09:18.336Z,80.38
2017-01-26T09:10:18.323Z,80.48
2017-01-26T09:11:18.306Z,80
2017-01-26T09:12:18.302Z,79.72
2017-01-26T09:13:18.286Z,80.1
2017-01-26T09:14:18.272Z,79.44
2017-01-26T09:15:18.260Z,79.15
2017-01-26T09:16:18.249Z,79.34
2017-01-26T09:17:18.237Z,79.82
2017-01-26T09:18:18.225Z,80.29
2017-01-26T09:19:18.213Z,80.57
2017-01-26T09:20:18.200Z,79.44
2017-01-26T09:21:18.188Z,79.25
2017-01-26T09:22:18.175Z,79.06
2017-01-26T09:23:18.166Z,79.06
2017-01-26T09:24:18.153Z,79.44
2017-01-26T09:25:18.142Z,79.72
2017-01-26T09:26:18.127Z,80.1
2017-01-26T09:27:18.116Z,79.25
2017-01-26T09:28:18.103Z,79.53
2017-01-26T09:29:18.116Z,78.96
2017-01-26T09:30:18.080Z,79.34
2017-01-26T09:31:18.067Z,79.15
2017-01-26T09:32:18.056Z,79.34
2017-01-26T09:33:18.428Z,79.3
2017-01-26T09:34:18.031Z,79.58
2017-01-26T09:35:18.024Z,79.68
2017-01-26T09:36:18.007Z,79.58
2017-01-26T09:37:17.996Z,80.44
2017-01-26T09:38:17.982Z,80.44
2017-01-26T09:39:17.970Z,80.34
2017-01-26T09:40:17.955Z,80.53
2017-01-26T09:41:17.945Z,80.25
2017-01-26T09:42:17.932Z,80.44
2017-01-26T09:43:17.921Z,80.72
2017-01-26T09:44:17.910Z,80.44
2017-01-26T09:45:17.893Z,80.25
2017-01-26T09:46:17.883Z,80.34
2017-01-26T09:47:17.871Z,80.25
2017-01-26T09:48:17.859Z,80.82
2017-01-26T09:49:17.846Z,80.63
2017-01-26T09:50:17.832Z,79.96
2017-01-26T09:51:17.821Z,80.53
2017-01-26T09:52:17.808Z,79.77
2017-01-26T09:53:17.794Z,80.34
2017-01-26T09:54:17.785Z,79.49
2017-01-26T09:55:17.770Z,79.02
2017-01-26T09:56:17.759Z,79.3
2017-01-26T09:57:17.745Z,79.49
2017-01-26T09:58:17.734Z,79.21
2017-01-26T09:59:17.721Z,79.3
2017-01-26T10:00:17.710Z,79.49
2017-01-26T10:01:17.695Z,79.21
2017-01-26T10:02:17.685Z,78.83
2017-01-26T10:03:17.670Z,78.64
2017-01-26T10:04:17.661Z,79.3
2017-01-26T10:05:17.647Z,79.39
2017-01-26T10:06:17.633Z,78.73
2017-01-26T10:07:17.621Z,78.83
2017-01-26T10:08:17.608Z,79.11
2017-01-26T10:09:17.594Z,79.39
2017-01-26T10:10:17.583Z,79.21
2017-01-26T10:11:17.572Z,79.11
2017-01-26T10:12:17.762Z,79.3
2017-01-26T10:13:17.547Z,79.21
2017-01-26T10:14:17.534Z,79.11
2017-01-26T10:15:17.519Z,79.44
2017-01-26T10:16:17.506Z,78.64
2017-01-26T10:17:17.497Z,78.54
2017-01-26T10:18:17.481Z,78.45
2017-01-26T10:19:17.470Z,78.26
2017-01-26T10:20:17.455Z,78.26
2017-01-26T10:21:17.445Z,78.07
2017-01-26T10:22:17.431Z,77.88
2017-01-26T10:23:17.426Z,78.54
2017-01-26T10:24:17.430Z,78.07
2017-01-26T10:25:17.396Z,77.78
2017-01-26T10:26:17.384Z,77.88
2017-01-26T10:27:17.373Z,77.59
2017-01-26T10:28:17.357Z,77.5
2017-01-26T10:29:17.343Z,77.69
2017-01-26T10:30:17.335Z,78.54
2017-01-26T10:31:17.320Z,78.58
2017-01-26T10:32:17.308Z,78.58
2017-01-26T10:33:17.296Z,78.11
2017-01-26T10:34:17.284Z,77.64
2017-01-26T10:35:17.274Z,77.83
2017-01-26T10:36:17.264Z,78.02
2017-01-26T10:37:17.247Z,77.25
2017-01-26T10:38:17.582Z,77.45
2017-01-26T10:39:17.223Z,77.16
2017-01-26T10:40:17.207Z,77.06
2017-01-26T10:41:17.195Z,76.78
2017-01-26T10:42:17.184Z,76.68
2017-01-26T10:43:17.187Z,76.5
2017-01-26T10:44:17.161Z,75.84
2017-01-26T10:45:17.147Z,75.93
2017-01-26T10:46:17.134Z,74.98
2017-01-26T10:47:17.122Z,74.03
2017-01-26T10:48:17.496Z,73.97
2017-01-26T10:49:17.098Z,73.79
2017-01-26T10:50:17.087Z,73.31
2017-01-26T10:51:17.074Z,72.64
2017-01-26T10:52:17.063Z,72.08
2017-01-26T10:53:17.049Z,72.08
2017-01-26T10:54:17.038Z,72.45
2017-01-26T10:55:17.028Z,72.64
2017-01-26T10:56:17.013Z,72.93
2017-01-26T10:57:17.025Z,71.89
2017-01-26T10:58:16.989Z,71.51
2017-01-26T10:59:16.979Z,71.22
2017-01-26T11:00:16.966Z,71.6
2017-01-26T11:01:16.955Z,71.6
2017-01-26T11:02:16.941Z,71.8
2017-01-26T11:03:16.931Z,71.6
2017-01-26T11:04:16.918Z,71.98
2017-01-26T11:05:16.906Z,71.89
2017-01-26T11:06:16.896Z,71.89
2017-01-26T11:07:16.883Z,71.32
2017-01-26T11:08:16.870Z,70.56
2017-01-26T11:09:16.865Z,70.84
2017-01-26T11:10:16.849Z,70.94
2017-01-26T11:11:16.836Z,71.13
2017-01-26T11:12:16.825Z,71.32
2017-01-26T11:13:16.811Z,70.75
2017-01-26T11:14:16.802Z,71.13
2017-01-26T11:15:16.787Z,70.4
2017-01-26T11:16:16.776Z,70.12
2017-01-26T11:17:16.766Z,70.12
2017-01-26T11:18:16.754Z,69.36
2017-01-26T11:19:16.743Z,68.41
2017-01-26T11:20:16.731Z,69.08
2017-01-26T11:21:16.720Z,67.85
2017-01-26T11:22:16.710Z,67.94
2017-01-26T11:23:16.699Z,67.75
2017-01-26T11:24:16.687Z,67.75
2017-01-26T11:25:16.677Z,67.88
2017-01-26T11:26:16.688Z,66.64
2017-01-26T11:27:16.657Z,66.93
2017-01-26T11:28:16.643Z,66.27
2017-01-26T11:29:16.652Z,66.08
2017-01-26T11:30:16.621Z,66.36
2017-01-26T11:31:16.610Z,65.22
2017-01-26T11:32:16.599Z,64.17
2017-01-26T11:33:16.614Z,63.89
2017-01-26T11:34:16.577Z,63.23
2017-01-26T11:35:16.570Z,63.13
2017-01-26T11:36:16.558Z,63.32
2017-01-26T11:37:16.546Z,63.23
2017-01-26T11:38:48.388Z,63.04
2017-01-26T11:39:25.381Z,62.85
2017-01-26T11:40:16.517Z,63.23
2017-01-26T11:41:16.506Z,63.7
2017-01-26T11:42:16.882Z,63.13
2017-01-26T11:43:16.490Z,63.23
2017-01-26T11:44:16.777Z,63.04
2017-01-26T11:45:16.463Z,62.85
2017-01-26T11:46:16.457Z,63.13
2017-01-26T11:47:16.442Z,63.98
2017-01-26T11:48:16.432Z,63.7
2017-01-26T11:49:16.421Z,63.89
2017-01-26T11:50:16.411Z,63.23
2017-01-26T11:51:16.401Z,63.13
2017-01-26T11:52:16.389Z,63.6
2017-01-26T11:53:16.380Z,62.94
2017-01-26T11:54:16.370Z,62.66
2017-01-26T11:55:16.358Z,62.85
2017-01-26T11:56:16.347Z,63.04
2017-01-26T11:57:16.337Z,63.01
2017-01-26T11:58:16.326Z,63.01
2017-01-26T11:59:16.323Z,62.85
2017-01-26T12:00:16.311Z,62.91
2017-01-26T12:01:16.298Z,62.91
2017-01-26T12:02:16.284Z,62.72
2017-01-26T12:03:16.274Z,62.72
2017-01-26T12:04:16.264Z,63.39
2017-01-26T12:05:16.255Z,63.76
2017-01-26T12:06:16.244Z,64.33
2017-01-26T12:07:16.260Z,64.24
2017-01-26T12:08:16.218Z,63.39
2017-01-26T12:09:16.210Z,63.86
2017-01-26T12:10:16.196Z,63.39
2017-01-26T12:11:16.187Z,63.39
2017-01-26T12:12:16.191Z,63.48
2017-01-26T12:13:16.168Z,63.86
2017-01-26T12:14:16.155Z,63.76
2017-01-26T12:15:16.142Z,63.01
2017-01-26T12:16:16.131Z,63.1
2017-01-26T12:17:16.121Z,63.01
2017-01-26T12:18:16.111Z,64.05
2017-01-26T12:19:16.099Z,63.57
2017-01-26T12:20:16.112Z,63.29
2017-01-26T12:21:16.077Z,63.39
2017-01-26T12:22:16.064Z,63.01
2017-01-26T12:23:16.055Z,63.39
2017-01-26T12:24:16.044Z,63.2
2017-01-26T12:25:16.032Z,63.29
2017-01-26T12:26:16.021Z,63.2
2017-01-26T12:27:16.010Z,63.67
2017-01-26T12:28:16.003Z,63.95
2017-01-26T12:29:15.988Z,63.57
2017-01-26T12:30:15.978Z,63.86
2017-01-26T12:31:16.354Z,63.48
2017-01-26T12:32:15.954Z,63.01
2017-01-26T12:33:15.946Z,63.29
2017-01-26T12:34:16.320Z,63.01
2017-01-26T12:35:15.923Z,62.91
2017-01-26T12:36:15.909Z,63.67
2017-01-26T12:37:16.285Z,63.48
2017-01-26T12:38:15.890Z,63.86
2017-01-26T12:39:15.886Z,63.86
2017-01-26T12:40:15.865Z,63.76
2017-01-26T12:41:15.855Z,63.48
2017-01-26T12:42:15.845Z,63.39
2017-01-26T12:43:15.833Z,63.1
2017-01-26T12:44:15.822Z,63.57
2017-01-26T12:45:15.812Z,64.14
2017-01-26T12:46:15.800Z,64.05
2017-01-26T12:47:15.792Z,63.86
2017-01-26T12:48:15.777Z,63.86
2017-01-26T12:49:15.768Z,63.86
2017-01-26T12:50:16.056Z,64.05
2017-01-26T12:51:15.745Z,63.86
2017-01-26T12:52:15.732Z,63.2
2017-01-26T12:53:15.723Z,62.91
2017-01-26T12:54:15.712Z,63.01